Aeroboteco Virtual Airlines! Uma nuvem a frente.



 INFORMAÇÕES METEOROLÓGICAS
METAR FOR GABS
ADDS - METARS form results

(0339 UTC 27 May 2019)
Data provider http://aviationweather.gov/metar/data/
 
METAR text: GABS 270330Z 23003KT 9999 FEW030 26/22 Q1011 NOSIG
Conditions at: GABS (BAMAKO/SENOU (MI, ML) observed 0330 UTC 27 May 2019
Temperature: 26.0°C (79°F)
Dewpoint: 22.0°C (72°F) [RH = 79%]
Pressure (altimeter): 29.85 inches Hg (1011.0 mb)
Winds: from the SW (230 degrees) at 3 MPH (3 knots; 1.5 m/s)
Visibility: 6 or more miles (10+ km)
Ceiling: at least 12,000 feet AGL
Clouds: few clouds at 3000 feet AGL
Weather: no significant weather observed at this time

METAR text: GABS 270300Z 20004KT 9999 FEW030 26/22 Q1011 NOSIG
Conditions at: GABS (BAMAKO/SENOU (MI, ML) observed 0300 UTC 27 May 2019
Temperature: 26.0°C (79°F)
Dewpoint: 22.0°C (72°F) [RH = 79%]
Pressure (altimeter): 29.85 inches Hg (1011.0 mb)
Winds: from the SSW (200 degrees) at 5 MPH (4 knots; 2.1 m/s)
Visibility: 6 or more miles (10+ km)
Ceiling: at least 12,000 feet AGL
Clouds: few clouds at 3000 feet AGL
Weather: no significant weather observed at this time

Forecast for: GABS (BAMAKO/SENOU (MI, ML)
Text: TAF GABS 262300Z 2700/2806 20008KT 9999 FEW030
Forecast period: 0000 UTC 27 May 2019 to 0600 UTC 28 May 2019
Forecast type: FROM: standard forecast or significant change
Winds: from the SSW (200 degrees) at 9 MPH (8 knots; 4.1 m/s)
Visibility: 6 or more miles 10+ km)
Ceiling: at least 12,000 feet AGL
Clouds: few clouds at 3000 feet AGL
Weather: no significant weather forecast for this period
Text: PROB30
Forecast period: 0400 to 0700 UTC 27 May 2019
Forecast type: TEMPORARY: The following changes expected for less than half the time period
Visibility: 2.49 miles (4.01 km)
Ceiling: at least 12,000 feet AGL
Clouds: scattered clouds at 3000 feet AGL
few clouds at 3500 feet AGL
Weather: TSRA  (rain associated with thunderstorm(s))
Text: TEMPO 2704/2707 4000 TSRA SCT030 FEW035CB
Forecast period: 1800 UTC 27 May 2019 to 0000 UTC 28 May 2019
Forecast type: TEMPORARY: The following changes expected for less than half the time period
Visibility: 2.49 miles (4.01 km)
Ceiling: at least 12,000 feet AGL
Clouds: scattered clouds at 3000 feet AGL
scattered clouds at 3500 feet AGL
Weather: TSRA  (rain associated with thunderstorm(s))

 MAPA DO AEROPORTO

 INFORMAÇÕES DA PISTA
Pista 06 Tamanho da pista 8879 ft Largura da pista 148 ft
Elevação da pista 1187 ft Ranhura da pista 0 ft Proa da pista 57
Pista 24 Tamanho da pista 8879 ft Largura da pista 148 ft
Elevação da pista 1244 ft Ranhura da pista 0 ft Proa da pista 237

 FREQUÊNCIAS DO AEROPORTO
Tipo A/G Nome A/G Frequência 667.3 MHZ
Tipo ACC Nome ACC Frequência 119.1 MHZ
Tipo TWR Nome TWR Frequência 118.3 MHZ

 AUXÍLIOS DE NAVEGAÇÃO PRÓXIMOS AO AEROPORTO
Tipo VOR-DME Nome Bamako/Senou Frequência 113700 KHZ
Tipo NDB Nome Bamako/Senou Frequência 301 KHZ